createdAt,value
2022-08-26T00:01:54.120Z,101619.78
2022-08-26T00:04:24.856Z,101621.44
2022-08-26T00:06:53.235Z,101627.97
2022-08-26T00:09:21.132Z,101618.69
2022-08-26T00:11:48.340Z,101628.00
2022-08-26T00:14:16.709Z,101611.03
2022-08-26T00:16:48.185Z,101616.22
2022-08-26T00:19:21.471Z,101618.69
2022-08-26T00:21:50.014Z,101631.81
2022-08-26T00:24:19.023Z,101631.25
2022-08-26T00:26:46.184Z,101621.41
2022-08-26T00:29:13.820Z,101629.03
2022-08-26T00:31:42.294Z,101622.47
2022-08-26T00:34:11.332Z,101623.28
2022-08-26T00:36:39.715Z,101618.66
2022-08-26T00:39:08.488Z,101624.69
2022-08-26T00:41:39.171Z,101618.38
2022-08-26T00:44:06.859Z,101616.91
2022-08-26T00:46:48.559Z,101608.78
2022-08-26T00:49:29.666Z,101606.59
2022-08-26T00:51:59.959Z,101628.25
2022-08-26T00:54:30.958Z,101630.66
2022-08-26T00:57:16.365Z,101629.53
2022-08-26T00:59:49.500Z,101623.81
2022-08-26T01:02:20.172Z,101627.06
2022-08-26T01:04:54.323Z,101633.38
2022-08-26T01:07:30.343Z,101626.84
2022-08-26T01:10:01.468Z,101625.69
2022-08-26T01:12:33.178Z,101624.06
2022-08-26T01:15:02.068Z,101616.66
2022-08-26T01:17:29.007Z,101618.63
2022-08-26T01:20:11.112Z,101615.31
2022-08-26T01:22:46.529Z,101612.03
2022-08-26T01:25:14.795Z,101613.63
2022-08-26T01:27:42.507Z,101610.91
2022-08-26T01:30:12.712Z,101604.28
2022-08-26T01:32:40.804Z,101610.84
2022-08-26T01:35:09.207Z,101615.78
2022-08-26T01:37:40.476Z,101622.09
2022-08-26T01:40:13.823Z,101623.75
2022-08-26T01:42:42.323Z,101614.13
2022-08-26T01:45:23.151Z,101619.63
2022-08-26T01:47:57.185Z,101623.97
2022-08-26T01:50:32.534Z,101619.63
2022-08-26T01:53:06.568Z,101622.31
2022-08-26T01:55:36.807Z,101623.41
2022-08-26T01:58:09.804Z,101621.25
2022-08-26T02:00:38.318Z,101622.88
2022-08-26T02:03:18.997Z,101622.03
2022-08-26T02:05:54.261Z,101622.88
2022-08-26T02:08:29.228Z,101631.63
2022-08-26T02:10:56.548Z,101633.28
2022-08-26T02:13:27.244Z,101631.09
2022-08-26T02:15:55.619Z,101633.28
2022-08-26T02:18:23.829Z,101633.59
2022-08-26T02:20:54.771Z,101631.91
2022-08-26T02:23:24.483Z,101631.59
2022-08-26T02:26:02.036Z,101637.94
2022-08-26T02:28:36.653Z,101632.75
2022-08-26T02:31:03.968Z,101627.81
2022-08-26T02:33:32.052Z,101623.91
2022-08-26T02:35:59.097Z,101627.19
2022-08-26T02:38:26.072Z,101621.38
2022-08-26T02:40:53.012Z,101627.69
2022-08-26T02:43:31.212Z,101623.34
2022-08-26T02:46:01.957Z,101620.63
2022-08-26T02:48:30.335Z,101616.47
2022-08-26T02:51:00.497Z,101613.19
2022-08-26T02:53:28.122Z,101602.75
2022-08-26T02:55:58.903Z,101607.88
2022-08-26T02:58:26.755Z,101606.22
2022-08-26T03:00:53.875Z,101610.56
2022-08-26T03:03:23.693Z,101620.47
2022-08-26T03:05:51.325Z,101616.44
2022-08-26T03:08:18.908Z,101615.53
2022-08-26T03:10:47.535Z,101604.88
2022-08-26T03:13:15.561Z,101613.84
2022-08-26T03:15:42.580Z,101620.47
2022-08-26T03:18:10.927Z,101620.47
2022-08-26T03:20:38.612Z,101626.44
2022-08-26T03:23:05.533Z,101618.53
2022-08-26T03:25:34.015Z,101616.56
2022-08-26T03:28:02.185Z,101618.75
2022-08-26T03:30:44.797Z,101615.75
2022-08-26T03:33:13.653Z,101614.44
2022-08-26T03:35:43.412Z,101616.88
2022-08-26T03:38:11.204Z,101614.44
2022-08-26T03:40:38.933Z,101628.13
2022-08-26T03:43:09.583Z,101619.50
2022-08-26T03:45:37.642Z,101610.34
2022-08-26T03:48:05.867Z,101621.84
2022-08-26T03:50:35.685Z,101622.66
2022-08-26T03:53:03.953Z,101622.69
2022-08-26T03:55:33.307Z,101611.72
2022-08-26T03:58:01.991Z,101619.97
2022-08-26T04:00:29.778Z,101619.97
2022-08-26T04:02:57.241Z,101615.50
2022-08-26T04:05:25.223Z,101620.72
2022-08-26T04:07:52.893Z,101614.94
2022-08-26T04:10:29.011Z,101616.06
2022-08-26T04:12:59.691Z,101619.34
2022-08-26T04:15:27.432Z,101614.44
2022-08-26T04:17:54.548Z,101618.28
2022-08-26T04:20:23.147Z,101617.19
2022-08-26T04:22:50.940Z,101618.28
2022-08-26T04:25:18.600Z,101610.09
2022-08-26T04:27:48.232Z,101603.75
2022-08-26T04:30:15.785Z,101607.16
2022-08-26T04:32:43.679Z,101606.34
2022-08-26T04:35:10.619Z,101609.63
2022-08-26T04:37:37.635Z,101609.13
2022-08-26T04:40:06.492Z,101604.41
2022-08-26T04:42:33.720Z,101610.78
2022-08-26T04:45:01.838Z,101616.00
2022-08-26T04:47:33.018Z,101612.19
2022-08-26T04:50:01.984Z,101612.69
2022-08-26T04:52:29.203Z,101622.47
2022-08-26T04:54:58.012Z,101624.66
2022-08-26T04:57:25.094Z,101629.63
2022-08-26T04:59:53.076Z,101628.53
2022-08-26T05:02:20.259Z,101630.72
2022-08-26T05:04:47.203Z,101636.13
2022-08-26T05:07:14.112Z,101636.19
2022-08-26T05:09:45.149Z,101632.34
2022-08-26T05:12:12.091Z,101634.53
2022-08-26T05:14:41.333Z,101640.53
2022-08-26T05:17:09.168Z,101643.81
2022-08-26T05:19:42.811Z,101641.91
2022-08-26T05:22:10.125Z,101642.47
2022-08-26T05:24:40.777Z,101651.53
2022-08-26T05:27:11.714Z,101650.94
2022-08-26T05:29:39.410Z,101648.47
2022-08-26T05:32:07.442Z,101652.03
2022-08-26T05:34:34.421Z,101649.75
2022-08-26T05:37:02.023Z,101655.22
2022-08-26T05:39:29.293Z,101660.19
2022-08-26T05:41:56.344Z,101660.50
2022-08-26T05:44:23.570Z,101655.84
2022-08-26T05:46:51.661Z,101661.84
2022-08-26T05:49:18.701Z,101660.81
2022-08-26T05:51:47.936Z,101665.34
2022-08-26T05:54:21.826Z,101666.16
2022-08-26T05:56:50.776Z,101678.25
2022-08-26T05:59:23.906Z,101666.38
2022-08-26T06:01:52.770Z,101673.81
2022-08-26T06:04:20.088Z,101670.81
2022-08-26T06:06:47.516Z,101667.81
2022-08-26T06:09:14.980Z,101677.72
2022-08-26T06:11:45.576Z,101678.84
2022-08-26T06:14:12.720Z,101677.72
2022-08-26T06:16:43.740Z,101677.13
2022-08-26T06:19:15.338Z,101680.72
2022-08-26T06:21:46.326Z,101684.31
2022-08-26T06:24:33.153Z,101684.31
2022-08-26T06:27:09.504Z,101686.59
2022-08-26T06:29:38.492Z,101688.75
2022-08-26T06:32:06.709Z,101685.97
2022-08-26T06:34:34.056Z,101695.56
2022-08-26T06:37:02.778Z,101699.38
2022-08-26T06:39:31.897Z,101699.94
2022-08-26T06:42:03.153Z,101689.78
2022-08-26T06:44:33.100Z,101698.06
2022-08-26T06:47:00.011Z,101697.78
2022-08-26T06:49:27.788Z,101703.53
2022-08-26T06:51:59.572Z,101702.53
2022-08-26T06:54:30.148Z,101706.34
2022-08-26T06:56:57.448Z,101711.81
2022-08-26T06:59:25.270Z,101707.47
2022-08-26T07:01:52.608Z,101709.66
2022-08-26T07:04:22.431Z,101711.56
2022-08-26T07:06:52.978Z,101704.28
2022-08-26T07:09:22.829Z,101716.88
2022-08-26T07:11:51.188Z,101717.28
2022-08-26T07:14:21.208Z,101713.78
2022-08-26T07:16:50.334Z,101731.13
2022-08-26T07:19:29.083Z,101723.69
2022-08-26T07:22:02.042Z,101728.81
2022-08-26T07:24:29.649Z,101723.66
2022-08-26T07:27:07.120Z,101730.81
2022-08-26T07:29:37.520Z,101733.25
2022-08-26T07:32:05.556Z,101734.78
2022-08-26T07:34:33.456Z,101739.50
2022-08-26T07:37:01.022Z,101737.59
2022-08-26T07:39:31.617Z,101737.66
2022-08-26T07:42:01.259Z,101740.91
2022-08-26T07:44:28.448Z,101748.66
2022-08-26T07:46:55.616Z,101752.47
2022-08-26T07:49:26.710Z,101756.25
2022-08-26T07:51:55.888Z,101759.50
2022-08-26T07:54:27.144Z,101760.41
2022-08-26T07:56:55.928Z,101763.41
2022-08-26T07:59:23.844Z,101762.34
2022-08-26T08:01:51.171Z,101768.63
2022-08-26T08:04:22.988Z,101776.66
2022-08-26T08:06:53.857Z,101763.38
2022-08-26T08:09:20.886Z,101764.28
2022-08-26T08:11:50.019Z,101762.66
2022-08-26T08:14:18.716Z,101762.78
2022-08-26T08:16:53.315Z,101766.16
2022-08-26T08:19:23.070Z,101765.03
2022-08-26T08:21:51.448Z,101752.72
2022-08-26T08:24:19.294Z,101747.63
2022-08-26T08:26:46.271Z,101754.59
2022-08-26T08:29:14.155Z,101749.84
2022-08-26T08:31:58.402Z,101759.66
2022-08-26T08:34:28.399Z,101762.84
2022-08-26T08:36:57.235Z,101763.38
2022-08-26T08:39:26.175Z,101766.69
2022-08-26T08:42:27.680Z,101760.00
2022-08-26T08:44:59.736Z,101778.66
2022-08-26T08:47:43.001Z,101766.16
2022-08-26T08:50:35.067Z,101771.31
2022-08-26T08:53:13.519Z,101775.19
2022-08-26T08:56:03.514Z,101779.06
2022-08-26T08:59:01.648Z,101767.28
2022-08-26T09:02:10.860Z,101776.06
2022-08-26T09:05:00.767Z,101776.06
2022-08-26T09:08:03.400Z,101780.41
2022-08-26T09:10:37.623Z,101788.13
2022-08-26T09:13:09.455Z,101781.56
2022-08-26T09:16:07.404Z,101784.34
2022-08-26T09:18:57.252Z,101782.94
2022-08-26T09:21:25.474Z,101783.63
2022-08-26T09:23:56.754Z,101783.66
2022-08-26T09:26:30.563Z,101782.59
2022-08-26T09:29:22.395Z,101785.22
2022-08-26T09:31:49.637Z,101784.84
2022-08-26T09:34:21.076Z,101789.34
2022-08-26T09:36:56.033Z,101795.66
2022-08-26T09:39:30.835Z,101790.22
2022-08-26T09:42:23.134Z,101787.19
2022-08-26T09:45:13.464Z,101786.72
2022-08-26T09:47:54.801Z,101792.41
2022-08-26T09:50:53.885Z,101790.59
2022-08-26T09:53:30.339Z,101786.78
2022-08-26T09:56:27.668Z,101791.63
2022-08-26T09:58:56.885Z,101792.72
2022-08-26T10:01:23.845Z,101791.34
2022-08-26T10:03:51.691Z,101797.25
2022-08-26T10:06:20.940Z,101795.41
2022-08-26T10:09:03.612Z,101795.19
2022-08-26T10:11:58.667Z,101790.25
2022-08-26T10:14:33.403Z,101783.47
2022-08-26T10:17:17.054Z,101784.50
2022-08-26T10:19:56.592Z,101787.75
2022-08-26T10:22:48.104Z,101791.25
2022-08-26T10:25:25.943Z,101783.41
2022-08-26T10:28:41.174Z,101778.50
2022-08-26T10:31:27.466Z,101774.47
2022-08-26T10:33:59.984Z,101785.16
2022-08-26T10:37:13.560Z,101784.06
2022-08-26T10:40:07.744Z,101780.84
2022-08-26T10:42:49.926Z,101783.69
2022-08-26T10:45:25.139Z,101778.16
2022-08-26T10:48:10.344Z,101782.91
2022-08-26T10:50:43.585Z,101788.00
2022-08-26T10:53:27.461Z,101791.28
2022-08-26T10:56:18.799Z,101786.69
2022-08-26T10:59:40.374Z,101788.34
2022-08-26T11:02:46.968Z,101792.31
2022-08-26T11:05:23.358Z,101788.63
2022-08-26T11:07:54.833Z,101793.16
2022-08-26T11:10:22.501Z,101791.69
2022-08-26T11:13:04.666Z,101789.59
2022-08-26T11:15:31.780Z,101786.84
2022-08-26T11:18:04.244Z,101788.53
2022-08-26T11:20:41.560Z,101783.94
2022-08-26T11:23:22.296Z,101786.19
2022-08-26T11:26:08.720Z,101785.44
2022-08-26T11:28:50.859Z,101785.75
2022-08-26T11:31:19.075Z,101787.44
2022-08-26T11:33:59.085Z,101790.09
2022-08-26T11:36:42.666Z,101793.72
2022-08-26T11:39:30.231Z,101805.72
2022-08-26T11:42:15.144Z,101795.28
2022-08-26T11:44:49.397Z,101798.53
2022-08-26T11:47:27.224Z,101801.81
2022-08-26T11:50:15.687Z,101801.44
2022-08-26T11:53:06.385Z,101789.91
2022-08-26T11:55:41.724Z,101792.53
2022-08-26T11:58:13.458Z,101795.53
2022-08-26T12:00:59.891Z,101790.66
2022-08-26T12:03:45.212Z,101792.28
2022-08-26T12:06:31.329Z,101794.00
2022-08-26T12:09:02.987Z,101794.56
2022-08-26T12:11:35.399Z,101792.94
2022-08-26T12:14:16.068Z,101797.00
2022-08-26T12:16:43.476Z,101799.47
2022-08-26T12:19:33.262Z,101800.31
2022-08-26T12:22:22.784Z,101798.13
2022-08-26T12:24:54.744Z,101802.19
2022-08-26T12:27:28.551Z,101803.59
2022-08-26T12:30:14.204Z,101800.63
2022-08-26T12:32:56.548Z,101799.31
2022-08-26T12:35:25.919Z,101798.00
2022-08-26T12:37:54.906Z,101806.78
2022-08-26T12:40:50.379Z,101799.47
2022-08-26T12:43:44.938Z,101807.56
2022-08-26T12:46:25.817Z,101811.06
2022-08-26T12:48:52.943Z,101808.03
2022-08-26T12:51:28.880Z,101814.63
2022-08-26T12:53:56.406Z,101820.34
2022-08-26T12:56:38.959Z,101817.59
2022-08-26T12:59:24.285Z,101807.06
2022-08-26T13:01:52.734Z,101813.66
2022-08-26T13:04:42.559Z,101809.19
2022-08-26T13:07:36.934Z,101819.09
2022-08-26T13:10:04.880Z,101797.81
2022-08-26T13:12:37.245Z,101802.97
2022-08-26T13:15:06.257Z,101795.53
2022-08-26T13:17:35.722Z,101795.31
2022-08-26T13:20:04.460Z,101798.47
2022-08-26T13:22:33.003Z,101796.66
2022-08-26T13:25:00.339Z,101798.28
2022-08-26T13:27:28.473Z,101798.38
2022-08-26T13:29:57.543Z,101800.34
2022-08-26T13:32:27.222Z,101791.81
2022-08-26T13:34:56.705Z,101797.91
2022-08-26T13:37:24.324Z,101800.16
2022-08-26T13:40:04.662Z,101787.50
2022-08-26T13:42:31.663Z,101788.09
2022-08-26T13:44:59.634Z,101792.47
2022-08-26T13:47:27.158Z,101784.25
2022-08-26T13:49:56.170Z,101792.50
2022-08-26T13:52:30.757Z,101790.34
2022-08-26T13:55:01.764Z,101788.72
2022-08-26T13:57:30.455Z,101798.81
2022-08-26T14:00:01.724Z,101799.31
2022-08-26T14:02:28.936Z,101805.56
2022-08-26T14:04:56.321Z,101810.19
2022-08-26T14:07:23.691Z,101803.88
2022-08-26T14:09:50.953Z,101795.00
2022-08-26T14:12:18.030Z,101797.16
2022-08-26T14:14:45.047Z,101804.81
2022-08-26T14:17:21.188Z,101798.00
2022-08-26T14:19:50.159Z,101793.03
2022-08-26T14:22:19.976Z,101793.88
2022-08-26T14:24:47.310Z,101795.47
2022-08-26T14:27:14.719Z,101797.69
2022-08-26T14:29:42.328Z,101796.56
2022-08-26T14:32:17.168Z,101789.94
2022-08-26T14:34:47.916Z,101790.06
2022-08-26T14:37:15.357Z,101790.03
2022-08-26T14:39:42.520Z,101792.16
2022-08-26T14:42:10.090Z,101783.72
2022-08-26T14:44:37.870Z,101787.84
2022-08-26T14:47:06.560Z,101784.81
2022-08-26T14:49:34.612Z,101783.44
2022-08-26T14:52:01.737Z,101782.00
2022-08-26T14:54:29.424Z,101782.06
2022-08-26T14:57:01.637Z,101776.22
2022-08-26T14:59:35.846Z,101772.41
2022-08-26T15:02:04.778Z,101770.47
2022-08-26T15:04:32.281Z,101775.78
2022-08-26T15:07:00.967Z,101772.22
2022-08-26T15:09:32.100Z,101773.06
2022-08-26T15:11:59.462Z,101772.50
2022-08-26T15:14:32.345Z,101770.91
2022-08-26T15:17:00.087Z,101782.13
2022-08-26T15:19:27.723Z,101775.28
2022-08-26T15:21:56.148Z,101775.00
2022-08-26T15:24:25.755Z,101779.09
2022-08-26T15:26:53.356Z,101774.09
2022-08-26T15:29:21.163Z,101771.16
2022-08-26T15:31:49.160Z,101767.56
2022-08-26T15:34:17.258Z,101769.25
2022-08-26T15:36:46.408Z,101768.13
2022-08-26T15:39:16.115Z,101767.88
2022-08-26T15:41:43.100Z,101759.81
2022-08-26T15:44:11.042Z,101750.81
2022-08-26T15:46:39.051Z,101763.63
2022-08-26T15:49:06.885Z,101762.47
2022-08-26T15:51:45.138Z,101749.31
2022-08-26T15:54:14.026Z,101754.72
2022-08-26T15:56:41.025Z,101752.38
2022-08-26T15:59:11.392Z,101753.97
2022-08-26T16:01:38.527Z,101756.16
2022-08-26T16:04:06.337Z,101758.06
2022-08-26T16:06:37.538Z,101752.03
2022-08-26T16:09:06.040Z,101760.78
2022-08-26T16:11:34.479Z,101763.38
2022-08-26T16:14:04.464Z,101763.44
2022-08-26T16:16:32.157Z,101765.38
2022-08-26T16:18:59.896Z,101757.66
2022-08-26T16:21:28.528Z,101760.03
2022-08-26T16:23:57.163Z,101754.28
2022-08-26T16:26:32.363Z,101760.47
2022-08-26T16:29:02.438Z,101755.56
2022-08-26T16:31:29.594Z,101762.16
2022-08-26T16:33:56.626Z,101760.72
2022-08-26T16:36:23.550Z,101757.63
2022-08-26T16:38:55.153Z,101763.63
2022-08-26T16:41:28.442Z,101765.00
2022-08-26T16:43:55.822Z,101757.88
2022-08-26T16:46:25.663Z,101768.75
2022-08-26T16:48:55.187Z,101767.28
2022-08-26T16:51:24.650Z,101764.56
2022-08-26T16:53:53.536Z,101765.78
2022-08-26T16:56:27.727Z,101772.91
2022-08-26T16:59:02.660Z,101780.00
2022-08-26T17:01:29.768Z,101781.59
2022-08-26T17:03:57.036Z,101776.91
2022-08-26T17:06:23.967Z,101783.31
2022-08-26T17:08:50.884Z,101775.44
2022-08-26T17:11:18.559Z,101779.59
2022-08-26T17:13:46.167Z,101786.41
2022-08-26T17:16:13.710Z,101780.41
2022-08-26T17:18:40.759Z,101783.31
2022-08-26T17:21:11.736Z,101786.88
2022-08-26T17:23:40.841Z,101784.50
2022-08-26T17:26:09.167Z,101793.34
2022-08-26T17:28:36.427Z,101787.72
2022-08-26T17:31:04.676Z,101789.47
2022-08-26T17:33:31.987Z,101798.47
2022-08-26T17:35:59.426Z,101797.94
2022-08-26T17:38:29.103Z,101792.31
2022-08-26T17:40:57.606Z,101789.56
2022-08-26T17:43:26.655Z,101800.88
2022-08-26T17:46:06.690Z,101804.44
2022-08-26T17:48:35.676Z,101792.56
2022-08-26T17:51:12.460Z,101795.34
2022-08-26T17:53:41.235Z,101802.94
2022-08-26T17:56:12.180Z,101797.31
2022-08-26T17:58:41.520Z,101797.78
2022-08-26T18:01:19.100Z,101806.03
2022-08-26T18:03:46.166Z,101801.59
2022-08-26T18:06:14.563Z,101815.34
2022-08-26T18:08:42.049Z,101818.25
2022-08-26T18:11:12.057Z,101816.66
2022-08-26T18:13:47.295Z,101814.53
2022-08-26T18:16:17.262Z,101812.28
2022-08-26T18:18:44.579Z,101810.41
2022-08-26T18:21:18.424Z,101811.63
2022-08-26T18:23:47.345Z,101811.19
2022-08-26T18:26:23.916Z,101813.59
2022-08-26T18:28:51.143Z,101811.13
2022-08-26T18:31:18.602Z,101809.72
2022-08-26T18:33:46.422Z,101817.44
2022-08-26T18:36:21.895Z,101818.28
2022-08-26T18:38:51.133Z,101815.63
2022-08-26T18:41:23.812Z,101816.50
2022-08-26T18:43:53.124Z,101823.75
2022-08-26T18:46:23.016Z,101830.66
2022-08-26T18:48:50.967Z,101826.69
2022-08-26T18:51:32.321Z,101830.44
2022-08-26T18:54:02.983Z,101833.47
2022-08-26T18:56:30.140Z,101834.22
2022-08-26T18:58:58.881Z,101836.31
2022-08-26T19:01:27.646Z,101837.47
2022-08-26T19:03:56.199Z,101835.22
2022-08-26T19:06:25.100Z,101842.09
2022-08-26T19:08:53.277Z,101849.22
2022-08-26T19:11:32.419Z,101843.34
2022-08-26T19:14:08.587Z,101846.06
2022-08-26T19:16:37.413Z,101854.28
2022-08-26T19:19:05.343Z,101857.16
2022-08-26T19:21:34.162Z,101850.56
2022-08-26T19:24:05.260Z,101854.88
2022-08-26T19:26:33.060Z,101848.91
2022-08-26T19:29:00.609Z,101851.41
2022-08-26T19:31:29.023Z,101858.44
2022-08-26T19:33:57.847Z,101847.41
2022-08-26T19:36:26.928Z,101850.66
2022-08-26T19:38:56.415Z,101855.53
2022-08-26T19:41:36.839Z,101861.00
2022-08-26T19:44:13.134Z,101866.84
2022-08-26T19:46:41.646Z,101857.50
2022-08-26T19:49:08.623Z,101855.16
2022-08-26T19:51:36.670Z,101858.03
2022-08-26T19:54:04.492Z,101866.56
2022-08-26T19:56:32.092Z,101856.63
2022-08-26T19:58:59.051Z,101865.41
2022-08-26T20:01:26.654Z,101868.28
2022-08-26T20:06:20.961Z,101863.97
2022-08-26T20:08:50.743Z,101868.59
2022-08-26T20:11:19.344Z,101868.59
2022-08-26T20:13:47.688Z,101877.84
2022-08-26T20:16:15.874Z,101874.28
2022-08-26T20:19:17.049Z,101870.50
2022-08-26T20:21:44.039Z,101878.06
2022-08-26T20:24:16.201Z,101865.16
2022-08-26T20:26:44.632Z,101859.59
2022-08-26T20:29:16.388Z,101869.19
2022-08-26T20:31:44.639Z,101863.16
2022-08-26T20:34:14.323Z,101867.19
2022-08-26T20:36:42.406Z,101860.19
2022-08-26T20:39:10.776Z,101865.88
2022-08-26T20:41:38.837Z,101865.78
2022-08-26T20:44:07.085Z,101868.25
2022-08-26T20:46:37.392Z,101863.63
2022-08-26T20:49:06.049Z,101866.38
2022-08-26T20:51:37.171Z,101866.81
2022-08-26T20:54:06.899Z,101867.78
2022-08-26T20:56:34.404Z,101864.22
2022-08-26T20:59:03.356Z,101862.19
2022-08-26T21:01:34.631Z,101862.06
2022-08-26T21:04:07.252Z,101868.59
2022-08-26T21:06:35.371Z,101863.59
2022-08-26T21:09:05.367Z,101871.44
2022-08-26T21:11:33.612Z,101868.50
2022-08-26T21:14:06.758Z,101865.19
2022-08-26T21:16:36.479Z,101865.78
2022-08-26T21:19:10.575Z,101873.13
2022-08-26T21:21:37.995Z,101867.91
2022-08-26T21:24:05.373Z,101870.06
2022-08-26T21:26:32.934Z,101868.88
2022-08-26T21:29:01.640Z,101870.53
2022-08-26T21:31:29.713Z,101876.97
2022-08-26T21:33:56.752Z,101872.09
2022-08-26T21:36:24.315Z,101871.03
2022-08-26T21:38:51.232Z,101876.00
2022-08-26T21:41:21.987Z,101869.72
2022-08-26T21:43:50.990Z,101871.03
2022-08-26T21:46:23.775Z,101873.75
2022-08-26T21:49:03.788Z,101868.78
2022-08-26T21:51:37.704Z,101874.47
2022-08-26T21:54:10.818Z,101874.72
2022-08-26T21:56:44.447Z,101876.38
2022-08-26T21:59:14.369Z,101880.47
2022-08-26T22:01:41.484Z,101878.41
2022-08-26T22:04:10.092Z,101889.00
2022-08-26T22:06:47.640Z,101888.75
2022-08-26T22:09:18.996Z,101882.19
2022-08-26T22:11:47.236Z,101881.88
2022-08-26T22:14:16.021Z,101888.66
2022-08-26T22:16:50.074Z,101890.78
2022-08-26T22:19:19.788Z,101889.59
2022-08-26T22:21:51.246Z,101896.25
2022-08-26T22:24:20.815Z,101892.56
2022-08-26T22:26:49.239Z,101884.97
2022-08-26T22:29:16.794Z,101892.44
2022-08-26T22:31:43.795Z,101884.50
2022-08-26T22:34:19.436Z,101886.28
2022-08-26T22:36:49.182Z,101885.69
2022-08-26T22:39:20.768Z,101890.56
2022-08-26T22:41:48.676Z,101883.91
2022-08-26T22:44:17.307Z,101891.38
2022-08-26T22:46:46.617Z,101878.81
2022-08-26T22:49:16.309Z,101880.59
2022-08-26T22:51:44.839Z,101878.47
2022-08-26T22:54:12.070Z,101884.28
2022-08-26T22:56:40.039Z,101872.53
2022-08-26T22:59:09.119Z,101878.94
2022-08-26T23:01:40.712Z,101876.81
2022-08-26T23:04:08.499Z,101875.16
2022-08-26T23:06:41.188Z,101875.16
2022-08-26T23:09:10.152Z,101872.19
2022-08-26T23:11:39.743Z,101875.63
2022-08-26T23:14:09.376Z,101879.78
2022-08-26T23:16:39.576Z,101871.00
2022-08-26T23:19:09.462Z,101877.28
2022-08-26T23:21:36.657Z,101873.13
2022-08-26T23:24:05.443Z,101871.81
2022-08-26T23:26:33.280Z,101868.50
2022-08-26T23:29:01.245Z,101868.50
2022-08-26T23:31:28.204Z,101867.31
2022-08-26T23:34:14.026Z,101862.94
2022-08-26T23:36:43.079Z,101865.06
2022-08-26T23:39:12.797Z,101860.44
2022-08-26T23:41:39.892Z,101875.97
2022-08-26T23:44:07.493Z,101869.34
2022-08-26T23:46:35.765Z,101866.16
2022-08-26T23:49:03.944Z,101863.66
2022-08-26T23:51:49.290Z,101860.22
2022-08-26T23:54:16.271Z,101850.25
2022-08-26T23:56:43.864Z,101852.03
2022-08-26T23:59:10.771Z,101851.91
